Coxsackie Waterfront Park

Coxsackie

Physical/Chemical Data

Physical, chemical and biological properties of the surface water that are measured continuously while the patrol boat is underway.

Entero Count (fecal indicator) and Rainfall

89 Samples taken

Sample Date [i] Enterococcus Count

Entero Count

Enterococcus (“Entero”) is a fecal indicating bacterium that lives in the intestines of humans and other warm-blooded animals. It is the EPA preferred indicator for sewage contamination.

Quality Rain, day of (in) Prior Day 2 Days Prior 3 Days Prior Rain 4 Days Total Rain
Sort Sort Sort Sort Sort Sort Sort Sort
10/13/2022 29 Acceptable 0.0 0.0 0.0 0.0 0.0
09/13/2022 35 Acceptable 0.9 0.1 0.0 0.0 1.0
08/22/2022 29 Acceptable 0.0 0.0 0.0 0.0 0.0
07/18/2022 45 Acceptable 0.1 0.0 0.0 0.0 0.1
06/16/2022 727 Beach Advisory 0.0 0.0 0.0 0.0 0.0
05/26/2022 31 Acceptable 0.0 0.0 0.0 0.0 0.0
10/28/2021 >2420 Beach Advisory 0.0 0.0 1.0 0.9 1.9
09/16/2021 345 Beach Advisory 0.2 0.8 0.0 0.8 1.8
08/19/2021 55 Acceptable 0.5 0.0 0.0 0.0 0.5
07/22/2021 435 Beach Advisory 0.0 0.5 0.3 0.1 0.9
06/10/2021 42 Acceptable 0.0 0.0 0.6 0.0 0.6
05/20/2021 13 Acceptable 0.0 0.0 0.0 0.0 0.0
10/17/2020 14 Acceptable 0.0 0.6 0.0 0.0 0.6
09/21/2020 29 Acceptable 0.0 0.0 0.0 0.0 0.0
08/17/2020 51 Acceptable 0.0 0.0 0.0 0.0 0.0
07/17/2020 33 Acceptable 0.4 0.1 0.0 0.1 0.5
06/19/2020 26 Acceptable 0.0 0.0 0.0 0.0 0.0
05/29/2020 9 Acceptable 0.0 0.0 0.0 0.0 0.0
10/11/2019 153 Beach Advisory 0.0 0.0 0.0 0.1 0.1
09/13/2019 38 Acceptable 0.0 0.0 0.0 0.0 0.0
08/09/2019 34 Acceptable 0.0 0.8 0.1 0.4 1.3
07/12/2019 101 Beach Advisory 0.0 0.0 0.0 0.0 0.0
06/08/2019 75 Beach Advisory 0.0 0.0 0.6 0.5 1.1
05/11/2019 8 Acceptable 0.0 0.2 0.0 0.0 0.2
10/13/2018 770 Beach Advisory 0.3 0.0 1.3 0.0 1.6
09/13/2018 1986 Beach Advisory 0.0 0.1 0.1 0.9 1.1
08/17/2018 16 Acceptable 0.0 0.0 0.0 0.0 0.0
07/20/2018 12 Acceptable 0.0 0.0 0.0 0.4 0.4
06/16/2018 146 Beach Advisory 0.0 0.1 0.0 0.3 0.3
05/09/2018 6 Acceptable 0.0 0.0 0.0 0.3 0.3
10/19/2017 11 Acceptable 0.0 0.0 0.0 0.0 0.0
09/14/2017 26 Acceptable 0.0 0.0 0.0 0.0 0.0
08/17/2017 55 Acceptable 0.0 0.0 0.0 0.0 0.0
07/13/2017 44 Acceptable 0.2 0.1 0.1 0.0 0.3
06/15/2017 9 Acceptable 0.0 0.0 0.0 0.0 0.0
05/18/2017 15 Acceptable 0.0 0.0 0.0 0.3 0.3
10/18/2016 9 Acceptable 0.0 0.0 0.0 0.0 0.0
09/17/2016 37 Acceptable 0.0 0.0 0.0 0.0 0.0
08/18/2016 34 Acceptable 0.0 0.0 0.2 0.0 0.2
07/16/2016 15 Acceptable 0.0 0.1 0.1 0.0 0.2
06/18/2016 248 Beach Advisory 0.0 0.0 0.0 0.0 0.0
05/23/2016 5 Acceptable 0.0 0.0 0.0 0.0 0.0
10/15/2015 12 Acceptable 0.0 0.0 0.0 0.0 0.0
09/14/2015 39 Acceptable 0.0 0.9 1.2 0.1 2.3
08/15/2015 6 Acceptable 0.3 0.3 0.0 0.0 0.6
07/11/2015 140 Beach Advisory 0.0 0.0 1.2 0.0 1.2
06/13/2015 5 Acceptable 0.0 1.3 0.0 0.0 1.3
05/14/2015 3 Acceptable 0.0 0.0 0.1 0.0 0.1
10/16/2014 33 Acceptable 0.3 0.1 0.0 0.0 0.4
09/10/2014 9 Acceptable 0.0 0.0 0.0 0.0 0.0
08/14/2014 22 Acceptable 0.0 0.1 0.0 0.0 0.1
07/10/2014 17 Acceptable 0.0 1.7 0.4 0.3 2.3
06/15/2014 921 Beach Advisory 0.0 0.5 0.5 0.1 1.0
05/15/2014 31 Acceptable 0.0 0.1 0.0 0.0 0.1
10/21/2013 14 Acceptable 0.0 0.0 0.0 0.2 0.2
09/21/2013 6 Acceptable 0.0 0.0 0.0 0.0 0.0
08/19/2013 6 Acceptable 0.0 0.0 0.0 0.0 0.0
07/21/2013 27 Acceptable 0.0 0.0 0.0 0.0 0.0
06/24/2013 67 Beach Advisory 0.0 0.0 0.0 0.0 0.0
06/04/2013 89 Beach Advisory 0.0 0.0 1.1 0.1 1.1
10/15/2012 10 Acceptable 0.0 0.5 0.0 0.1 0.6
09/15/2012 11 Acceptable 0.1 0.0 0.0 0.0 0.1
08/18/2012 15 Acceptable 0.0 0.1 0.0 0.2 0.3
07/21/2012 9 Acceptable 0.0 0.0 0.0 0.2 0.2
06/16/2012 16 Acceptable 0.0 0.0 0.0 0.2 0.2
05/20/2012 49 Acceptable 0.0 0.0 0.0 0.0 0.0
10/16/2011 2420 Beach Advisory 0.0 0.1 1.1 0.3 1.6
09/19/2011 28 Acceptable 0.0 0.0 0.0 0.1 0.1
08/21/2011 <1 Acceptable 0.0 0.0 0.0 0.0 0.0
07/14/2011 13 Acceptable 0.0 0.3 0.0 0.0 0.3
07/02/2011 47 Acceptable 0.0 0.0 1.0 1.1 2.1
05/19/2011 378 Beach Advisory 0.8 0.2 0.1 0.5 1.7
10/16/2010 96 Beach Advisory 0.0 1.0 0.3 0.0 1.3
09/14/2010 42 Acceptable 0.0 0.0 0.0 0.0 0.0
08/21/2010 2 Acceptable 0.0 0.1 0.1 0.0 0.2
07/19/2010 3 Acceptable 0.0 0.2 0.5 0.0 0.7
06/18/2010 12 Acceptable 0.0 0.0 0.2 0.0 0.3
05/25/2010 19 Acceptable 0.0 0.0 0.0 0.0 0.0
10/23/2009 9 Acceptable 0.0 0.0 0.0 0.0 0.0
09/17/2009 12 Acceptable 0.0 0.0 0.0 0.0 0.0
08/24/2009 1733 Beach Advisory 0.0 0.3 1.0 1.5 2.8
07/31/2009 345 Beach Advisory 0.6 0.3 1.0 0.0 1.9
06/12/2009 10 Acceptable 0.3 0.4 0.0 0.5 1.1
05/15/2009 5 Acceptable 0.0 0.5 0.0 0.0 0.5
10/23/2008 11 Acceptable 0.0 0.2 0.1 0.0 0.2
09/17/2008 8 Acceptable 0.0 0.0 0.0 0.3 0.3
08/09/2008 435 Beach Advisory 0.0 0.0 1.3 0.2 1.5
07/17/2008 11 Acceptable 0.0 0.0 0.0 0.1 0.1
06/18/2008 7 Acceptable 0.0 0.4 0.1 0.9 1.4

Entero Count (fecal indicator) and Rainfall Correlation

89 Samples taken

All Water Quality Parameters

89 Samples taken

Sample Date [i] Entero Count

Entero Count

Enterococcus (“Entero”) is a fecal indicating bacterium that lives in the intestines of humans and other warm-blooded animals. It is the EPA preferred indicator for sewage contamination.

Quality [i] Temp (f)

Temperature

Hudson River water temperature changes seasonally. Surface water temperature can change on small scales in the river reflecting natural and human influences.

[i] Salinity

Salinity

Estuaries like the Hudson are where freshwaters in rivers meet the sea. Salinity tells us about the relative contribution of fresh and salt water within a particular region of the estuary. 

[i] Chlorophyll

Chlorophyll

A measure of the amount of microscopic algae present in the water. High chlorophyll counts can mean high levels of the nutrients phosphorus and nitrogen, and the threat, or presence, of algae blooms.

[i] Turbidity

Turbidity

Turbidity is a measure of the amount of fine particles suspended in the water. As turbidity rises, light penetration, a key factor for aquatic plants and algae, diminishes.

[i] Oxygen

Oxygen

Oxygen concentrations in the water are closely connected to biological activities. Surface waters are typically in equilibrium with the atmosphere such that the oxygen concentration near the surface is close to fully saturated (100%).

Sort Sort Sort Sort Sort Sort Sort Sort
10/13/2022 29 Acceptable 59.5 0.1 4.9 9.3 90.6
09/13/2022 35 Acceptable 74.9 0.2 4.3 14.0 77.3
08/22/2022 29 Acceptable 79.6 0.1 6.6 4.3 93
07/18/2022 45 Acceptable 79.2 0.1 8.6 10.6 102.3
06/16/2022 727 Beach Advisory 72.7 0.2 13 13.4 104.9
05/26/2022 31 Acceptable 69.1 0.1 3.7 19.8 n/a
10/28/2021 >2420 Beach Advisory 53.636 0.1 3.5 160.9 100.7
09/16/2021 345 Beach Advisory 70.97 0.1 2.35 22 n/a
08/19/2021 55 Acceptable 78.71 0.1 5.08 15.3 90.7
07/22/2021 435 Beach Advisory 72.59 0.09 3.46 36.7 96.7
06/10/2021 42 Acceptable 74.804 0.15 20.35 28.2 150
05/20/2021 13 Acceptable 65.192 0.12 3.36 14.8 110.3
10/17/2020 14 Acceptable 60.044 0.14 9.22 6.9 98.6
09/21/2020 29 Acceptable 66.722 0.15 4.79 12.6 99.2
08/17/2020 51 Acceptable 80.096 0.14 17.28 8.6 115.7
07/17/2020 33 Acceptable 79.43 0.14 11.64 9.2 104.8
06/19/2020 26 Acceptable 77.27 0.14 4.87 7.2 107.6
05/29/2020 9 Acceptable 70.862 0.12 17.1 8.3 117.8
10/11/2019 153 Beach Advisory 60.8 0.14 7.96 8 99
09/13/2019 38 Acceptable 70.34 0.13 15.07 12.9 107
08/09/2019 34 Acceptable 80.114 0.14 9.21 10.7 114.6
07/12/2019 101 Beach Advisory 79.556 0.09 5.52 9 87.6
06/08/2019 75 Beach Advisory 66.884 0.09 2.73 17.8 97.8
05/11/2019 8 Acceptable 55.94 0.09 1.84 6.2 100.7
10/13/2018 770 Beach Advisory 62.168 0.12 3.82 16.6 92.8
09/13/2018 1986 Beach Advisory 74.264 0.14 20.42 14.1 80.1
08/17/2018 16 Acceptable 78.404 0.13 9.63 16.4 88.4
07/20/2018 12 Acceptable 80.942 0.15 4.11 11.1 94.1
06/16/2018 146 Beach Advisory 71.276 0.14 4.14 12.3 99.1
05/09/2018 6 Acceptable 57.758 0.08 2.53 9.9 103.6
10/19/2017 11 Acceptable 63.392 0.12 10.81 11.5 94.7
09/14/2017 26 Acceptable 68.738 0.13 24.5 16.5 103.7
08/17/2017 55 Acceptable 76.46 0.12 5.6 11.8 90.9
07/13/2017 44 Acceptable 75.83 0.09 0.98 36.3 92.3
06/15/2017 9 Acceptable 71.024 0.09 2.57 12.6 98.3
05/18/2017 15 Acceptable 60.656 0.08 1.5 32.4 107.4
10/18/2016 9 Acceptable 62.168 0.12 4.58 40.2 93.9
09/17/2016 37 Acceptable 74.066 0.12 4.04 n/a 86.2
08/18/2016 34 Acceptable 81.32 0.12 1.25 36.3 82.4
07/16/2016 15 Acceptable 79.736 0.11 10.81 14.7 91.9
06/18/2016 248 Beach Advisory 71.762 0.11 3.13 30 100.2
05/23/2016 5 Acceptable 61.646 0.11 0.65 25.1 101.2
10/15/2015 12 Acceptable 60.26 0.15 10.13 20.4 95.8
09/14/2015 39 Acceptable 76.28 0.14 4.17 12.8 85.8
08/15/2015 6 Acceptable 78.296 0.13 5.71 13.6 101
07/11/2015 140 Beach Advisory 74.156 0.09 2.93 19 94.6
06/13/2015 5 Acceptable 71.978 0.14 11.03 10.3 102.1
05/14/2015 3 Acceptable 68.594 0.11 2.21 18.5 n/a
10/16/2014 33 Acceptable 64.166 0.15 13.86 55.6 109.5
09/10/2014 9 Acceptable 75.902 0.14 1.31 31.9 119.9
08/14/2014 22 Acceptable 76.154 0.12 6.02 18.4 99.8
07/10/2014 17 Acceptable 78.476 0.11 1.77 22.6 97.3
06/15/2014 921 Beach Advisory 69.818 0.13 0.04 71.8 104
05/15/2014 31 Acceptable 62.204 0.08 1.71 13.8 98.5
10/21/2013 14 Acceptable 60.566 0.12 7.08 159.8 95.8
09/21/2013 6 Acceptable 68.63 0.13 7.46 55.4 97.4
08/19/2013 6 Acceptable 74.57 0.13 1.75 111.4 89.3
07/21/2013 27 Acceptable 83.84 0.1 1.08 25.3 95.8
06/24/2013 67 Beach Advisory 74.138 0.11 1.45 24.8 102.5
06/04/2013 89 Beach Advisory 69.404 0.09 0.91 25.9 93.8
10/15/2012 10 Acceptable 58.748 0.12 3.06 54.2 96.7
09/15/2012 11 Acceptable 73.76 0.13 2.99 66.8 95.3
08/18/2012 15 Acceptable n/a n/a n/a n/a n/a
07/21/2012 9 Acceptable 82.292 0.17 5.73 11.4 110.8
06/16/2012 16 Acceptable 72.86 0.12 1.62 15.4 96.8
05/20/2012 49 Acceptable 65.408 0.1 1.93 21.8 97.5
10/16/2011 2420 Beach Advisory 62.114 0.12 0.48 53.2 96.1
09/19/2011 28 Acceptable 67.208 0.11 0.82 64.3 97.7
08/21/2011 <1 Acceptable 77.306 0.14 8.57 45.3 109.6
07/14/2011 13 Acceptable 79.556 0.09 8.67 12 109.6
07/02/2011 47 Acceptable 72.662 0.09 0.79 17.5 n/a
05/19/2011 378 Beach Advisory n/a n/a n/a n/a n/a
10/16/2010 96 Beach Advisory 55.652 0.09 1.64 21.1 95.7
09/14/2010 42 Acceptable 72.122 0.1 16.82 24.6 101.6
08/21/2010 2 Acceptable 78.296 0.13 7.86 n/a 111.2
07/19/2010 3 Acceptable 83.084 0.11 11.67 9.2 104.6
06/18/2010 12 Acceptable 72.77 0.14 24.41 29.1 117.9
05/25/2010 19 Acceptable 67.532 0.13 3.71 312.4 113.6
10/23/2009 9 Acceptable 50.504 0.11 0.96 36.6 93.1
09/17/2009 12 Acceptable 69.53 0.11 25.48 60 111.7
08/24/2009 1733 Beach Advisory 79.79 0.12 8.94 73.7 97.7
07/31/2009 345 Beach Advisory 76.082 0.13 5.3 18.1 90.2
06/12/2009 10 Acceptable n/a n/a n/a n/a n/a
05/15/2009 5 Acceptable 62.456 n/a 1.52 7.4 100.7
10/23/2008 11 Acceptable 54.338 0.13 11.11 18.9 94.3
09/17/2008 8 Acceptable n/a n/a n/a n/a n/a
08/09/2008 435 Beach Advisory n/a n/a n/a n/a n/a
07/17/2008 11 Acceptable 79.9 0.12 8.55 22.4 116.2
06/18/2008 7 Acceptable n/a n/a n/a n/a n/a

Water Quality*

Acceptable (0–60) Beach Advisory (61+)

*Single sample thresholds;
Enterococcus count per 100mL

Prior Four Day Rainfall
(in inches)

Dry Weather (0–0.25) Wet Weather (0.25+)

Enterococcus is an EPA-approved fecal contamination indicator.

Samples taken by Riverkeeper, Lamont-Doherty Earth Observatory and CUNY Queens College staff, and processed on the Riverkeeper vessel, according to the 2014 Quality Assurance Project Plan.

Rainfall data comes from wunderground.com. Wet weather is a common trigger of fecal contamination.

What do the Numbers Mean?

Water Quality scoring is based on the 2012 Recreational Water Quality Criteria from the US Environmental Protection Agency (EPA) for safe swimming. Learn More

About this location:

Coxsackie, NY
The park at Coxsackie has an unofficial beach, a launch ramp and a fishing area. Kayaking, recreational boating, and casual water contact occur here.

Agencies Responsible:

Greene County Dept. of Health: 518-719-3600 and NYSDEC Region 4: 518-537-2045

Don't let New York State give up on New York City waters
Become a Member